Time,TemperatureF,DewpointF,PressureIn,WindDirection,WindDirectionDegrees,WindSpeedMPH,WindSpeedGustMPH,Humidity,HourlyPrecipIn,Conditions,Clouds,dailyrainin,SoftwareType,DateUTC
2013-06-28 00:01:00,62.6,60.8,29.78,WSW,250,0.0,0.0,94,0.00,,,0.00,WeatherCatV1.15B25,2013-06-28 04:01:00,
2013-06-28 00:02:00,62.6,60.8,29.78,WSW,251,0.0,0.0,94,0.00,,,0.00,WeatherCatV1.15B25,2013-06-28 04:02:00,
2013-06-28 00:03:00,62.6,60.8,29.78,WSW,251,0.0,0.0,94,0.00,,,0.00,WeatherCatV1.15B25,2013-06-28 04:03:00,
2013-06-28 00:05:00,62.6,60.8,29.78,WSW,251,0.0,0.0,94,0.00,,,0.00,WeatherCatV1.15B25,2013-06-28 04:05:00,
2013-06-28 00:10:00,62.5,60.7,29.78,WSW,251,0.0,0.0,94,0.00,,,0.00,WeatherCatV1.15B25,2013-06-28 04:10:00,
2013-06-28 00:15:00,62.4,60.6,29.78,WSW,250,0.0,0.0,94,0.00,,,0.00,WeatherCatV1.15B25,2013-06-28 04:15:00,
2013-06-28 00:20:00,62.4,60.9,29.78,WSW,250,0.0,0.0,95,0.00,,,0.00,WeatherCatV1.15B25,2013-06-28 04:20:00,
2013-06-28 00:25:00,62.3,60.8,29.78,WSW,251,0.0,0.0,95,0.00,,,0.00,WeatherCatV1.15B25,2013-06-28 04:25:00,
2013-06-28 00:30:00,62.3,60.8,29.78,WSW,251,0.0,0.0,95,0.00,,,0.00,WeatherCatV1.15B25,2013-06-28 04:30:00,
2013-06-28 00:35:00,62.2,60.7,29.78,WSW,251,0.0,0.0,95,0.00,,,0.00,WeatherCatV1.15B25,2013-06-28 04:35:00,
2013-06-28 00:40:00,62.2,60.7,29.78,WSW,251,0.0,0.0,95,0.00,,,0.00,WeatherCatV1.15B25,2013-06-28 04:40:00,
2013-06-28 00:45:00,62.1,60.6,29.78,WSW,251,0.0,0.0,95,0.00,,,0.00,WeatherCatV1.15B25,2013-06-28 04:45:00,
2013-06-28 00:50:00,62.1,60.6,29.77,WSW,251,0.0,0.0,95,0.00,,,0.00,WeatherCatV1.15B25,2013-06-28 04:50:00,
2013-06-28 00:55:00,62.1,60.6,29.77,WSW,251,0.0,0.0,95,0.00,,,0.00,WeatherCatV1.15B25,2013-06-28 04:55:00,
2013-06-28 01:00:00,62.0,60.5,29.76,WSW,251,0.0,0.0,95,0.00,,,0.00,WeatherCatV1.15B25,2013-06-28 05:00:00,
2013-06-28 01:05:00,62.0,60.5,29.76,WSW,250,0.0,0.0,95,0.00,,,0.00,WeatherCatV1.15B25,2013-06-28 05:05:00,
2013-06-28 01:10:00,61.9,60.4,29.76,WSW,250,0.0,0.0,95,0.00,,,0.00,WeatherCatV1.15B25,2013-06-28 05:10:00,
2013-06-28 01:15:00,61.8,60.3,29.77,WSW,250,0.0,0.0,95,0.00,,,0.00,WeatherCatV1.15B25,2013-06-28 05:15:00,
2013-06-28 01:21:00,61.8,60.3,29.77,WSW,250,0.0,0.0,95,0.00,,,0.00,WeatherCatV1.15B25,2013-06-28 05:21:00,
2013-06-28 01:26:00,61.7,60.2,29.77,WSW,251,0.0,0.0,95,0.00,,,0.00,WeatherCatV1.15B25,2013-06-28 05:26:00,
2013-06-28 01:31:00,61.6,60.2,29.76,WSW,250,0.0,0.0,95,0.00,,,0.00,WeatherCatV1.15B25,2013-06-28 05:31:00,
2013-06-28 01:36:00,61.5,60.1,29.76,WSW,250,0.0,0.0,95,0.00,,,0.00,WeatherCatV1.15B25,2013-06-28 05:36:00,
2013-06-28 01:41:00,61.4,60.0,29.75,WSW,251,0.0,0.0,95,0.00,,,0.00,WeatherCatV1.15B25,2013-06-28 05:41:00,
2013-06-28 01:46:00,61.3,59.9,29.75,WSW,251,0.0,0.0,95,0.00,,,0.00,WeatherCatV1.15B25,2013-06-28 05:46:00,
2013-06-28 01:51:00,61.2,59.8,29.75,WSW,250,0.0,0.0,95,0.00,,,0.00,WeatherCatV1.15B25,2013-06-28 05:51:00,
2013-06-28 01:56:00,61.1,59.7,29.74,WSW,250,0.0,0.0,95,0.00,,,0.00,WeatherCatV1.15B25,2013-06-28 05:56:00,
2013-06-28 02:01:00,61.1,59.7,29.74,WSW,251,0.0,0.0,95,0.00,,,0.00,WeatherCatV1.15B25,2013-06-28 06:01:00,
2013-06-28 02:06:00,61.1,59.7,29.74,WSW,250,0.0,0.0,95,0.00,,,0.00,WeatherCatV1.15B25,2013-06-28 06:06:00,
2013-06-28 02:11:00,61.0,59.6,29.73,WSW,250,0.0,0.0,95,0.00,,,0.00,WeatherCatV1.15B25,2013-06-28 06:11:00,
2013-06-28 02:16:00,61.0,59.6,29.73,WSW,250,0.0,0.0,95,0.00,,,0.00,WeatherCatV1.15B25,2013-06-28 06:16:00,
2013-06-28 02:21:00,61.0,59.6,29.73,WSW,251,0.0,0.0,95,0.00,,,0.00,WeatherCatV1.15B25,2013-06-28 06:21:00,
2013-06-28 02:26:00,61.0,59.6,29.73,WSW,250,0.0,0.0,95,0.00,,,0.00,WeatherCatV1.15B25,2013-06-28 06:26:00,
2013-06-28 02:31:00,61.0,59.6,29.73,WSW,250,0.0,0.0,95,0.00,,,0.00,WeatherCatV1.15B25,2013-06-28 06:31:00,
2013-06-28 02:36:00,61.0,59.6,29.72,WSW,251,0.0,0.0,95,0.00,,,0.00,WeatherCatV1.15B25,2013-06-28 06:36:00,
2013-06-28 02:41:00,61.0,59.6,29.72,WSW,251,0.0,0.0,95,0.00,,,0.00,WeatherCatV1.15B25,2013-06-28 06:41:00,
2013-06-28 02:46:00,61.0,59.8,29.72,WSW,251,0.0,0.0,96,0.00,,,0.00,WeatherCatV1.15B25,2013-06-28 06:46:00,
2013-06-28 02:51:00,61.0,59.6,29.72,WSW,250,0.0,0.0,95,0.00,,,0.00,WeatherCatV1.15B25,2013-06-28 06:51:00,
2013-06-28 02:56:00,60.8,59.4,29.72,WSW,251,0.0,0.0,95,0.00,,,0.00,WeatherCatV1.15B25,2013-06-28 06:56:00,
2013-06-28 03:01:00,60.8,59.4,29.73,WSW,251,0.0,0.0,95,0.00,,,0.00,WeatherCatV1.15B25,2013-06-28 07:01:00,
2013-06-28 03:06:00,60.7,59.3,29.73,WSW,251,0.0,0.0,95,0.00,,,0.00,WeatherCatV1.15B25,2013-06-28 07:06:00,
2013-06-28 03:11:00,60.7,59.3,29.72,WSW,251,0.0,0.0,95,0.00,,,0.00,WeatherCatV1.15B25,2013-06-28 07:11:00,
2013-06-28 03:16:00,60.6,59.2,29.72,WSW,251,0.0,0.0,95,0.00,,,0.00,WeatherCatV1.15B25,2013-06-28 07:16:00,
2013-06-28 03:21:00,60.5,59.4,29.72,WSW,251,0.0,0.0,96,0.00,,,0.00,WeatherCatV1.15B25,2013-06-28 07:21:00,
2013-06-28 03:26:00,60.5,59.4,29.72,WSW,250,0.0,0.0,96,0.00,,,0.00,WeatherCatV1.15B25,2013-06-28 07:26:00,
2013-06-28 03:31:00,60.4,59.3,29.72,WSW,251,0.0,0.0,96,0.00,,,0.00,WeatherCatV1.15B25,2013-06-28 07:31:00,
2013-06-28 03:36:00,60.2,58.8,29.72,NW,323,0.0,0.0,95,0.00,,,0.00,WeatherCatV1.15B25,2013-06-28 07:36:00,
2013-06-28 03:41:00,60.0,58.6,29.72,NW,322,0.0,0.0,95,0.00,,,0.00,WeatherCatV1.15B25,2013-06-28 07:41:00,
2013-06-28 03:46:00,59.8,58.4,29.72,NW,323,0.0,0.0,95,0.00,,,0.00,WeatherCatV1.15B25,2013-06-28 07:46:00,
2013-06-28 03:51:00,59.7,58.3,29.72,NW,323,0.0,0.0,95,0.00,,,0.01,WeatherCatV1.15B25,2013-06-28 07:51:00,
2013-06-28 03:56:00,59.5,58.1,29.71,NW,323,0.0,0.0,95,0.11,,,0.02,WeatherCatV1.15B25,2013-06-28 07:56:00,
2013-06-28 04:01:00,59.5,58.1,29.70,NW,322,0.0,0.0,95,0.09,,,0.03,WeatherCatV1.15B25,2013-06-28 08:01:00,
2013-06-28 04:06:00,59.5,58.1,29.70,NW,322,0.0,0.0,95,0.09,,,0.03,WeatherCatV1.15B25,2013-06-28 08:06:00,
2013-06-28 04:11:00,59.4,58.0,29.70,NW,323,0.0,0.0,95,0.06,,,0.03,WeatherCatV1.15B25,2013-06-28 08:11:00,
2013-06-28 04:16:00,59.4,58.0,29.70,NW,322,0.0,0.0,95,0.04,,,0.03,WeatherCatV1.15B25,2013-06-28 08:16:00,
2013-06-28 04:21:00,59.3,58.2,29.71,NW,323,0.0,0.0,96,0.00,,,0.03,WeatherCatV1.15B25,2013-06-28 08:21:00,
2013-06-28 04:26:00,59.2,58.1,29.70,NW,323,0.0,0.0,96,0.00,,,0.03,WeatherCatV1.15B25,2013-06-28 08:26:00,
2013-06-28 04:31:00,59.0,57.9,29.69,NW,323,0.0,0.0,96,0.00,,,0.03,WeatherCatV1.15B25,2013-06-28 08:31:00,
2013-06-28 04:36:00,59.0,57.9,29.69,NW,322,0.0,0.0,96,0.00,,,0.03,WeatherCatV1.15B25,2013-06-28 08:36:00,
2013-06-28 04:41:00,59.0,57.9,29.68,NW,322,0.0,0.0,96,0.00,,,0.03,WeatherCatV1.15B25,2013-06-28 08:41:00,
2013-06-28 04:46:00,59.0,57.6,29.68,NW,323,0.0,0.0,95,0.00,,,0.03,WeatherCatV1.15B25,2013-06-28 08:46:00,
2013-06-28 04:51:00,59.0,57.6,29.67,NW,323,0.0,0.0,95,0.00,,,0.03,WeatherCatV1.15B25,2013-06-28 08:51:00,
2013-06-28 04:56:00,59.0,57.9,29.67,NW,323,0.0,0.0,96,0.00,,,0.03,WeatherCatV1.15B25,2013-06-28 08:56:00,
2013-06-28 05:01:00,58.6,57.2,29.67,NW,323,0.0,0.0,95,0.00,,,0.03,WeatherCatV1.15B25,2013-06-28 09:01:00,
2013-06-28 05:06:00,58.6,57.5,29.67,NW,323,0.0,0.0,96,0.00,,,0.03,WeatherCatV1.15B25,2013-06-28 09:06:00,
2013-06-28 05:11:00,58.6,57.5,29.67,NW,322,0.0,0.0,96,0.00,,,0.04,WeatherCatV1.15B25,2013-06-28 09:11:00,
2013-06-28 05:16:00,58.5,57.4,29.67,NW,322,0.0,0.0,96,0.00,,,0.04,WeatherCatV1.15B25,2013-06-28 09:16:00,
2013-06-28 05:21:00,58.4,57.3,29.67,NW,323,0.0,0.0,96,0.08,,,0.05,WeatherCatV1.15B25,2013-06-28 09:21:00,
2013-06-28 05:26:00,58.4,57.0,29.67,NW,323,0.0,0.0,95,0.06,,,0.05,WeatherCatV1.15B25,2013-06-28 09:26:00,
2013-06-28 05:31:00,58.2,56.8,29.66,NW,323,0.0,0.0,95,0.05,,,0.06,WeatherCatV1.15B25,2013-06-28 09:31:00,
2013-06-28 05:36:00,58.1,56.7,29.66,NW,322,0.0,0.0,95,0.16,,,0.08,WeatherCatV1.15B25,2013-06-28 09:36:00,
2013-06-28 05:41:00,58.0,56.9,29.66,NW,323,0.0,0.0,96,0.11,,,0.08,WeatherCatV1.15B25,2013-06-28 09:41:00,
2013-06-28 05:46:00,58.0,56.9,29.66,NW,323,0.0,0.0,96,0.15,,,0.10,WeatherCatV1.15B25,2013-06-28 09:46:00,
2013-06-28 05:51:00,58.0,56.9,29.66,NW,322,0.0,0.0,96,0.38,,,0.14,WeatherCatV1.15B25,2013-06-28 09:51:00,
2013-06-28 05:56:00,57.9,56.8,29.66,NW,322,0.0,0.0,96,0.85,,,0.19,WeatherCatV1.15B25,2013-06-28 09:56:00,
2013-06-28 06:01:00,57.8,56.7,29.66,NW,323,0.0,0.0,96,0.41,,,0.21,WeatherCatV1.15B25,2013-06-28 10:01:00,
2013-06-28 06:06:00,57.8,56.7,29.66,NW,323,0.0,0.0,96,0.72,,,0.26,WeatherCatV1.15B25,2013-06-28 10:06:00,
2013-06-28 06:11:00,57.8,56.7,29.66,NW,323,0.0,0.0,96,0.42,,,0.29,WeatherCatV1.15B25,2013-06-28 10:11:00,
2013-06-28 06:16:00,57.8,56.7,29.65,NW,323,0.0,0.0,96,0.35,,,0.31,WeatherCatV1.15B25,2013-06-28 10:16:00,
2013-06-28 06:21:00,57.8,56.7,29.66,NW,322,0.0,0.0,96,1.03,,,0.37,WeatherCatV1.15B25,2013-06-28 10:21:00,
2013-06-28 06:26:00,57.8,56.7,29.66,NW,322,0.0,0.0,96,0.26,,,0.40,WeatherCatV1.15B25,2013-06-28 10:26:00,
2013-06-28 06:31:00,57.7,56.6,29.66,NW,322,0.0,0.0,96,0.69,,,0.42,WeatherCatV1.15B25,2013-06-28 10:31:00,
2013-06-28 06:36:00,57.7,56.6,29.67,NW,323,0.0,0.0,96,0.59,,,0.48,WeatherCatV1.15B25,2013-06-28 10:36:00,
2013-06-28 06:41:00,57.7,56.6,29.68,NW,323,0.0,0.0,96,0.69,,,0.52,WeatherCatV1.15B25,2013-06-28 10:41:00,
2013-06-28 06:46:00,57.6,56.5,29.67,NW,322,0.0,0.0,96,0.33,,,0.55,WeatherCatV1.15B25,2013-06-28 10:46:00,
2013-06-28 06:51:00,57.6,56.5,29.67,NW,323,0.0,0.0,96,0.19,,,0.57,WeatherCatV1.15B25,2013-06-28 10:51:00,
2013-06-28 06:56:00,57.6,56.5,29.67,NW,323,0.0,0.0,96,0.10,,,0.57,WeatherCatV1.15B25,2013-06-28 10:56:00,
2013-06-28 07:01:00,57.5,56.4,29.66,NW,321,0.0,0.0,96,0.07,,,0.58,WeatherCatV1.15B25,2013-06-28 11:01:00,
2013-06-28 07:06:00,57.5,56.4,29.66,NW,321,0.0,0.0,96,0.09,,,0.59,WeatherCatV1.15B25,2013-06-28 11:06:00,
2013-06-28 07:11:00,57.5,56.4,29.66,NW,321,0.0,0.0,96,0.26,,,0.60,WeatherCatV1.15B25,2013-06-28 11:11:00,
2013-06-28 07:16:00,57.4,56.3,29.66,NW,320,0.0,0.0,96,0.20,,,0.62,WeatherCatV1.15B25,2013-06-28 11:16:00,
2013-06-28 07:21:00,57.4,56.3,29.66,NW,319,0.0,0.0,96,0.65,,,0.63,WeatherCatV1.15B25,2013-06-28 11:21:00,
2013-06-28 07:26:00,57.4,56.3,29.66,NW,320,0.0,0.0,96,0.30,,,0.68,WeatherCatV1.15B25,2013-06-28 11:26:00,
2013-06-28 07:31:00,57.4,56.3,29.66,NW,320,0.0,0.0,96,0.12,,,0.69,WeatherCatV1.15B25,2013-06-28 11:31:00,
2013-06-28 07:36:00,57.4,56.3,29.66,NW,320,0.0,0.0,96,0.11,,,0.69,WeatherCatV1.15B25,2013-06-28 11:36:00,
2013-06-28 07:41:00,57.4,56.3,29.66,NW,319,0.0,0.0,96,0.09,,,0.70,WeatherCatV1.15B25,2013-06-28 11:41:00,
2013-06-28 07:46:00,57.4,56.3,29.66,NW,319,0.0,0.0,96,0.07,,,0.70,WeatherCatV1.15B25,2013-06-28 11:46:00,
2013-06-28 07:51:00,57.4,56.3,29.66,NW,321,0.0,0.0,96,0.07,,,0.71,WeatherCatV1.15B25,2013-06-28 11:51:00,
2013-06-28 07:56:00,57.4,56.3,29.66,NW,321,0.0,0.0,96,0.07,,,0.72,WeatherCatV1.15B25,2013-06-28 11:56:00,
2013-06-28 08:01:00,57.4,56.3,29.65,NW,321,0.0,0.0,96,0.07,,,0.72,WeatherCatV1.15B25,2013-06-28 12:01:00,
2013-06-28 08:06:00,57.4,56.3,29.65,NW,320,0.0,0.0,96,0.06,,,0.72,WeatherCatV1.15B25,2013-06-28 12:06:00,
2013-06-28 08:11:00,57.4,56.3,29.65,NW,320,0.0,0.0,96,0.04,,,0.73,WeatherCatV1.15B25,2013-06-28 12:11:00,
2013-06-28 08:16:00,57.4,56.3,29.64,NW,319,0.0,0.0,96,0.04,,,0.73,WeatherCatV1.15B25,2013-06-28 12:16:00,
2013-06-28 08:21:00,57.4,56.3,29.64,NW,322,0.0,0.0,96,0.04,,,0.73,WeatherCatV1.15B25,2013-06-28 12:21:00,
2013-06-28 08:26:00,57.5,56.4,29.64,NW,322,0.0,0.0,96,0.04,,,0.74,WeatherCatV1.15B25,2013-06-28 12:26:00,
2013-06-28 08:31:00,57.4,56.3,29.64,NW,322,0.0,0.0,96,0.04,,,0.74,WeatherCatV1.15B25,2013-06-28 12:31:00,
2013-06-28 08:36:00,57.6,56.5,29.64,NW,322,0.0,0.0,96,0.04,,,0.74,WeatherCatV1.15B25,2013-06-28 12:36:00,
2013-06-28 08:41:00,57.8,56.7,29.63,NW,322,0.0,0.0,96,0.06,,,0.75,WeatherCatV1.15B25,2013-06-28 12:41:00,
2013-06-28 08:46:00,57.8,56.7,29.63,NW,322,0.0,0.0,96,0.09,,,0.76,WeatherCatV1.15B25,2013-06-28 12:46:00,
2013-06-28 08:51:00,57.8,56.7,29.63,NW,322,0.0,0.0,96,0.08,,,0.76,WeatherCatV1.15B25,2013-06-28 12:51:00,
2013-06-28 08:56:00,57.9,56.8,29.62,NW,322,0.0,0.0,96,0.05,,,0.76,WeatherCatV1.15B25,2013-06-28 12:56:00,
2013-06-28 09:01:00,58.0,56.9,29.62,NW,321,0.0,0.0,96,0.04,,,0.77,WeatherCatV1.15B25,2013-06-28 13:01:00,
2013-06-28 09:06:00,58.0,56.9,29.62,NW,321,0.0,0.0,96,0.10,,,0.78,WeatherCatV1.15B25,2013-06-28 13:06:00,
2013-06-28 09:11:00,58.0,57.2,29.61,NW,321,0.0,0.0,97,0.10,,,0.78,WeatherCatV1.15B25,2013-06-28 13:11:00,
2013-06-28 09:16:00,57.9,56.8,29.61,NW,321,0.0,0.0,96,0.05,,,0.78,WeatherCatV1.15B25,2013-06-28 13:16:00,
2013-06-28 09:21:00,57.7,56.6,29.61,NW,322,0.0,0.0,96,0.05,,,0.79,WeatherCatV1.15B25,2013-06-28 13:21:00,
2013-06-28 09:26:00,57.6,56.5,29.61,NW,322,0.0,0.0,96,0.10,,,0.80,WeatherCatV1.15B25,2013-06-28 13:26:00,
2013-06-28 09:31:00,57.7,56.6,29.60,NW,322,0.0,0.0,96,0.19,,,0.82,WeatherCatV1.15B25,2013-06-28 13:31:00,
2013-06-28 09:36:00,57.8,56.7,29.60,NW,322,0.0,0.0,96,0.38,,,0.84,WeatherCatV1.15B25,2013-06-28 13:36:00,
2013-06-28 09:41:00,57.9,56.8,29.59,NW,322,0.0,0.0,96,0.12,,,0.85,WeatherCatV1.15B25,2013-06-28 13:41:00,
2013-06-28 09:46:00,57.8,56.7,29.60,NW,322,0.0,0.0,96,0.10,,,0.85,WeatherCatV1.15B25,2013-06-28 13:46:00,
2013-06-28 09:51:00,57.8,56.7,29.59,NW,322,0.0,0.0,96,0.08,,,0.86,WeatherCatV1.15B25,2013-06-28 13:51:00,
2013-06-28 09:56:00,57.7,56.6,29.60,NW,322,0.0,0.0,96,0.08,,,0.87,WeatherCatV1.15B25,2013-06-28 13:56:00,
2013-06-28 10:01:00,57.7,56.9,29.60,NW,322,0.0,0.0,97,0.19,,,0.88,WeatherCatV1.15B25,2013-06-28 14:01:00,
2013-06-28 10:07:00,57.7,56.9,29.59,NW,322,0.0,0.0,97,0.09,,,0.89,WeatherCatV1.15B25,2013-06-28 14:07:00,
2013-06-28 10:12:00,57.9,56.8,29.59,NW,322,0.0,0.0,96,0.14,,,0.90,WeatherCatV1.15B25,2013-06-28 14:12:00,
2013-06-28 10:17:00,57.9,56.8,29.59,NW,322,0.0,0.0,96,0.07,,,0.91,WeatherCatV1.15B25,2013-06-28 14:17:00,
2013-06-28 10:22:00,57.9,56.8,29.59,NW,322,0.0,0.0,96,0.15,,,0.92,WeatherCatV1.15B25,2013-06-28 14:22:00,
2013-06-28 10:27:00,58.0,56.9,29.59,NW,323,0.0,0.0,96,0.07,,,0.92,WeatherCatV1.15B25,2013-06-28 14:27:00,
2013-06-28 10:32:00,58.0,56.9,29.58,NW,321,0.0,0.0,96,0.04,,,0.93,WeatherCatV1.15B25,2013-06-28 14:32:00,
2013-06-28 10:37:00,58.0,56.9,29.58,NW,321,0.0,0.0,96,0.04,,,0.93,WeatherCatV1.15B25,2013-06-28 14:37:00,
2013-06-28 10:42:00,58.0,56.9,29.58,NW,321,0.0,0.0,96,0.10,,,0.94,WeatherCatV1.15B25,2013-06-28 14:42:00,
2013-06-28 10:47:00,58.1,57.3,29.58,NW,319,0.0,0.0,97,0.06,,,0.94,WeatherCatV1.15B25,2013-06-28 14:47:00,
2013-06-28 10:52:00,58.2,57.4,29.58,NW,319,0.0,0.0,97,0.05,,,0.95,WeatherCatV1.15B25,2013-06-28 14:52:00,
2013-06-28 10:57:00,58.4,57.5,29.58,NW,319,0.0,0.0,97,0.13,,,0.96,WeatherCatV1.15B25,2013-06-28 14:57:00,
2013-06-28 11:02:00,58.5,57.6,29.58,NW,315,0.0,0.0,97,0.09,,,0.97,WeatherCatV1.15B25,2013-06-28 15:02:00,
2013-06-28 11:07:00,58.5,57.6,29.57,WNW,294,0.0,0.0,97,0.09,,,0.97,WeatherCatV1.15B25,2013-06-28 15:07:00,
2013-06-28 11:12:00,58.6,57.7,29.58,WNW,292,0.0,0.0,97,0.06,,,0.98,WeatherCatV1.15B25,2013-06-28 15:12:00,
2013-06-28 11:17:00,58.7,57.8,29.58,WNW,293,0.0,0.0,97,0.23,,,1.00,WeatherCatV1.15B25,2013-06-28 15:17:00,
2013-06-28 11:22:00,58.8,57.9,29.58,WNW,293,0.0,0.0,97,0.16,,,1.01,WeatherCatV1.15B25,2013-06-28 15:22:00,
2013-06-28 11:27:00,59.0,58.1,29.58,WNW,292,0.0,0.0,97,0.08,,,1.01,WeatherCatV1.15B25,2013-06-28 15:27:00,
2013-06-28 11:32:00,58.8,57.9,29.58,WNW,291,0.0,0.0,97,0.05,,,1.01,WeatherCatV1.15B25,2013-06-28 15:32:00,
2013-06-28 11:37:00,58.7,57.8,29.57,WNW,291,0.0,0.0,97,0.00,,,1.01,WeatherCatV1.15B25,2013-06-28 15:37:00,
2013-06-28 11:42:00,58.6,57.7,29.57,WNW,294,0.0,0.0,97,0.00,,,1.01,WeatherCatV1.15B25,2013-06-28 15:42:00,
2013-06-28 11:47:00,58.4,57.5,29.57,WNW,292,0.0,0.0,97,0.00,,,1.01,WeatherCatV1.15B25,2013-06-28 15:47:00,
2013-06-28 11:52:00,58.4,57.5,29.58,WNW,302,0.0,0.0,97,0.00,,,1.01,WeatherCatV1.15B25,2013-06-28 15:52:00,
2013-06-28 11:57:00,58.6,57.7,29.58,WNW,302,0.0,0.0,97,0.00,,,1.02,WeatherCatV1.15B25,2013-06-28 15:57:00,
2013-06-28 12:02:00,59.0,58.1,29.58,WNW,302,0.0,0.0,97,0.00,,,1.02,WeatherCatV1.15B25,2013-06-28 16:02:00,
2013-06-28 12:07:00,59.0,58.1,29.58,WNW,303,0.0,0.0,97,0.09,,,1.03,WeatherCatV1.15B25,2013-06-28 16:07:00,
2013-06-28 12:12:00,59.2,58.3,29.58,WNW,300,0.0,0.0,97,0.06,,,1.03,WeatherCatV1.15B25,2013-06-28 16:12:00,
2013-06-28 12:17:00,59.4,58.5,29.58,WNW,300,0.0,0.0,97,0.04,,,1.03,WeatherCatV1.15B25,2013-06-28 16:17:00,
2013-06-28 12:22:00,59.4,58.5,29.57,WNW,302,0.0,0.0,97,0.00,,,1.03,WeatherCatV1.15B25,2013-06-28 16:22:00,
2013-06-28 12:27:00,59.0,58.1,29.57,WNW,299,0.0,0.0,97,0.00,,,1.03,WeatherCatV1.15B25,2013-06-28 16:27:00,
2013-06-28 12:32:00,59.0,58.1,29.57,WNW,299,0.0,0.0,97,0.00,,,1.03,WeatherCatV1.15B25,2013-06-28 16:32:00,
2013-06-28 12:37:00,59.1,58.2,29.57,WNW,299,0.0,0.0,97,0.00,,,1.03,WeatherCatV1.15B25,2013-06-28 16:37:00,
2013-06-28 12:42:00,59.1,58.2,29.57,WNW,299,0.0,0.0,97,0.00,,,1.04,WeatherCatV1.15B25,2013-06-28 16:42:00,
2013-06-28 12:47:00,59.3,58.4,29.57,WNW,299,0.0,0.0,97,0.00,,,1.04,WeatherCatV1.15B25,2013-06-28 16:47:00,
2013-06-28 12:52:00,59.5,58.6,29.56,WNW,299,0.0,0.0,97,0.00,,,1.04,WeatherCatV1.15B25,2013-06-28 16:52:00,
2013-06-28 12:57:00,59.8,58.9,29.56,WNW,300,0.0,0.0,97,0.00,,,1.04,WeatherCatV1.15B25,2013-06-28 16:57:00,
2013-06-28 13:02:00,59.8,58.9,29.56,WNW,300,0.0,0.0,97,0.00,,,1.04,WeatherCatV1.15B25,2013-06-28 17:02:00,
2013-06-28 13:07:00,59.9,59.0,29.56,WNW,296,0.0,0.0,97,0.00,,,1.04,WeatherCatV1.15B25,2013-06-28 17:07:00,
2013-06-28 13:12:00,60.0,59.1,29.56,WNW,296,0.0,0.0,97,0.00,,,1.04,WeatherCatV1.15B25,2013-06-28 17:12:00,
2013-06-28 13:17:00,60.1,59.2,29.55,WNW,295,0.0,0.0,97,0.00,,,1.04,WeatherCatV1.15B25,2013-06-28 17:17:00,
2013-06-28 13:22:00,60.3,59.4,29.55,WNW,294,0.0,0.0,97,0.00,,,1.04,WeatherCatV1.15B25,2013-06-28 17:22:00,
2013-06-28 13:27:00,60.2,59.3,29.55,WNW,294,0.0,0.0,97,0.00,,,1.05,WeatherCatV1.15B25,2013-06-28 17:27:00,
2013-06-28 13:32:00,60.3,59.4,29.55,WNW,292,0.0,0.0,97,0.00,,,1.05,WeatherCatV1.15B25,2013-06-28 17:32:00,
2013-06-28 13:37:00,60.2,59.3,29.55,WNW,292,0.0,0.0,97,0.00,,,1.05,WeatherCatV1.15B25,2013-06-28 17:37:00,
2013-06-28 13:42:00,60.2,59.3,29.55,WNW,292,0.0,0.0,97,0.00,,,1.05,WeatherCatV1.15B25,2013-06-28 17:42:00,
2013-06-28 13:47:00,60.1,59.2,29.55,WNW,292,0.0,0.0,97,0.00,,,1.05,WeatherCatV1.15B25,2013-06-28 17:47:00,
2013-06-28 13:52:00,60.0,59.1,29.55,WNW,293,0.0,0.0,97,0.00,,,1.06,WeatherCatV1.15B25,2013-06-28 17:52:00,
2013-06-28 13:57:00,60.2,59.3,29.55,WNW,293,0.0,0.0,97,0.00,,,1.06,WeatherCatV1.15B25,2013-06-28 17:57:00,
2013-06-28 14:02:00,60.6,59.7,29.55,WNW,291,0.0,0.0,97,0.00,,,1.06,WeatherCatV1.15B25,2013-06-28 18:02:00,
2013-06-28 14:08:00,61.0,60.1,29.55,WNW,291,0.0,0.0,97,0.00,,,1.06,WeatherCatV1.15B25,2013-06-28 18:08:00,
2013-06-28 14:13:00,61.1,60.2,29.55,WNW,291,0.0,0.0,97,0.00,,,1.06,WeatherCatV1.15B25,2013-06-28 18:13:00,
2013-06-28 14:18:00,60.9,60.0,29.55,WNW,291,0.0,0.0,97,0.00,,,1.06,WeatherCatV1.15B25,2013-06-28 18:18:00,
2013-06-28 14:23:00,60.6,59.7,29.55,WNW,292,0.0,0.0,97,0.00,,,1.07,WeatherCatV1.15B25,2013-06-28 18:23:00,
2013-06-28 14:28:00,60.6,59.7,29.55,WNW,292,0.0,0.0,97,0.00,,,1.07,WeatherCatV1.15B25,2013-06-28 18:28:00,
2013-06-28 14:33:00,60.9,60.0,29.55,WNW,291,0.0,0.0,97,0.00,,,1.07,WeatherCatV1.15B25,2013-06-28 18:33:00,
2013-06-28 14:38:00,61.3,60.4,29.54,WNW,291,0.0,0.0,97,0.00,,,1.07,WeatherCatV1.15B25,2013-06-28 18:38:00,
2013-06-28 14:43:00,61.6,60.7,29.54,WNW,291,0.0,0.0,97,0.00,,,1.07,WeatherCatV1.15B25,2013-06-28 18:43:00,
2013-06-28 14:48:00,61.7,60.8,29.54,WNW,292,0.0,0.0,97,0.00,,,1.07,WeatherCatV1.15B25,2013-06-28 18:48:00,
2013-06-28 14:53:00,61.7,60.8,29.54,WNW,291,0.0,0.0,97,0.00,,,1.07,WeatherCatV1.15B25,2013-06-28 18:53:00,
2013-06-28 14:58:00,61.7,60.8,29.54,WNW,292,0.0,0.0,97,0.00,,,1.07,WeatherCatV1.15B25,2013-06-28 18:58:00,
2013-06-28 15:03:00,61.7,60.8,29.54,WNW,290,0.0,0.0,97,0.00,,,1.07,WeatherCatV1.15B25,2013-06-28 19:03:00,
2013-06-28 15:08:00,61.6,60.7,29.54,WNW,290,0.0,0.0,97,0.00,,,1.07,WeatherCatV1.15B25,2013-06-28 19:08:00,
2013-06-28 15:13:00,61.7,60.8,29.54,WNW,290,0.0,0.0,97,0.00,,,1.07,WeatherCatV1.15B25,2013-06-28 19:13:00,
2013-06-28 15:18:00,61.6,60.7,29.53,WNW,288,0.0,0.0,97,0.00,,,1.07,WeatherCatV1.15B25,2013-06-28 19:18:00,
2013-06-28 15:23:00,61.4,60.5,29.54,WNW,288,0.0,0.0,97,0.00,,,1.07,WeatherCatV1.15B25,2013-06-28 19:23:00,
2013-06-28 15:28:00,61.4,60.5,29.53,WNW,288,0.0,0.0,97,0.00,,,1.07,WeatherCatV1.15B25,2013-06-28 19:28:00,
2013-06-28 15:33:00,61.8,60.9,29.53,WNW,288,0.0,0.0,97,0.00,,,1.07,WeatherCatV1.15B25,2013-06-28 19:33:00,
2013-06-28 15:38:00,62.2,61.3,29.53,WNW,289,0.0,0.0,97,0.00,,,1.07,WeatherCatV1.15B25,2013-06-28 19:38:00,
2013-06-28 15:43:00,62.4,61.5,29.53,WNW,288,0.0,0.0,97,0.00,,,1.07,WeatherCatV1.15B25,2013-06-28 19:43:00,
2013-06-28 15:48:00,62.4,61.5,29.53,WNW,287,0.0,0.0,97,0.00,,,1.07,WeatherCatV1.15B25,2013-06-28 19:48:00,
2013-06-28 15:53:00,62.3,61.4,29.53,WNW,288,0.0,0.0,97,0.00,,,1.07,WeatherCatV1.15B25,2013-06-28 19:53:00,
2013-06-28 15:58:00,62.4,61.5,29.53,WNW,288,0.0,0.0,97,0.00,,,1.07,WeatherCatV1.15B25,2013-06-28 19:58:00,
2013-06-28 16:04:00,62.3,61.1,29.53,WNW,288,0.0,0.0,96,0.00,,,1.07,WeatherCatV1.15B25,2013-06-28 20:04:00,
2013-06-28 16:09:00,62.2,61.0,29.52,WNW,289,0.0,0.0,96,0.00,,,1.07,WeatherCatV1.15B25,2013-06-28 20:09:00,
2013-06-28 16:14:00,62.5,61.3,29.52,WNW,289,0.0,0.0,96,0.00,,,1.07,WeatherCatV1.15B25,2013-06-28 20:14:00,
2013-06-28 16:19:00,62.9,62.0,29.52,WNW,292,0.0,0.0,97,0.00,,,1.07,WeatherCatV1.15B25,2013-06-28 20:19:00,
2013-06-28 16:25:00,63.2,62.3,29.52,WNW,292,0.0,0.0,97,0.00,,,1.07,WeatherCatV1.15B25,2013-06-28 20:25:00,
2013-06-28 16:30:00,63.2,62.3,29.52,WNW,292,0.0,0.0,97,0.00,,,1.07,WeatherCatV1.15B25,2013-06-28 20:30:00,
2013-06-28 16:35:00,63.0,61.8,29.52,WNW,292,0.0,0.0,96,0.00,,,1.07,WeatherCatV1.15B25,2013-06-28 20:35:00,
2013-06-28 16:40:00,62.7,61.5,29.52,WNW,292,0.0,0.0,96,0.00,,,1.07,WeatherCatV1.15B25,2013-06-28 20:40:00,
2013-06-28 16:45:00,62.5,61.3,29.52,WNW,292,0.0,0.0,96,0.00,,,1.07,WeatherCatV1.15B25,2013-06-28 20:45:00,
2013-06-28 16:50:00,62.4,61.2,29.53,WNW,294,0.0,0.0,96,0.00,,,1.07,WeatherCatV1.15B25,2013-06-28 20:50:00,
2013-06-28 16:55:00,62.3,61.1,29.53,WNW,294,0.0,0.0,96,0.00,,,1.07,WeatherCatV1.15B25,2013-06-28 20:55:00,
2013-06-28 17:00:00,62.2,61.0,29.52,WNW,294,0.0,0.0,96,0.00,,,1.07,WeatherCatV1.15B25,2013-06-28 21:00:00,
2013-06-28 17:05:00,62.0,60.8,29.52,WNW,293,0.0,0.0,96,0.00,,,1.07,WeatherCatV1.15B25,2013-06-28 21:05:00,
2013-06-28 17:11:00,62.0,60.8,29.52,WNW,293,0.0,0.0,96,0.00,,,1.07,WeatherCatV1.15B25,2013-06-28 21:11:00,
2013-06-28 17:16:00,61.8,60.6,29.52,WNW,293,0.0,0.0,96,0.00,,,1.08,WeatherCatV1.15B25,2013-06-28 21:16:00,
2013-06-28 17:21:00,61.8,60.6,29.52,WNW,293,0.0,0.0,96,0.00,,,1.08,WeatherCatV1.15B25,2013-06-28 21:21:00,
2013-06-28 17:26:00,61.9,60.7,29.52,WNW,293,0.0,0.0,96,0.00,,,1.08,WeatherCatV1.15B25,2013-06-28 21:26:00,
2013-06-28 17:31:00,61.9,60.7,29.51,WNW,292,0.0,0.0,96,0.00,,,1.08,WeatherCatV1.15B25,2013-06-28 21:31:00,
2013-06-28 17:36:00,62.0,60.8,29.51,WNW,293,0.0,0.0,96,0.00,,,1.08,WeatherCatV1.15B25,2013-06-28 21:36:00,
2013-06-28 17:41:00,62.0,60.8,29.51,WNW,293,0.0,0.0,96,0.00,,,1.08,WeatherCatV1.15B25,2013-06-28 21:41:00,
2013-06-28 17:46:00,62.3,61.1,29.51,WNW,292,0.0,0.0,96,0.00,,,1.08,WeatherCatV1.15B25,2013-06-28 21:46:00,
2013-06-28 17:51:00,62.4,61.2,29.52,WNW,292,0.0,0.0,96,0.00,,,1.08,WeatherCatV1.15B25,2013-06-28 21:51:00,
2013-06-28 17:56:00,62.4,61.2,29.52,WNW,294,0.0,0.0,96,0.00,,,1.08,WeatherCatV1.15B25,2013-06-28 21:56:00,
2013-06-28 18:01:00,62.3,61.1,29.52,WNW,292,0.0,0.0,96,0.00,,,1.08,WeatherCatV1.15B25,2013-06-28 22:01:00,
2013-06-28 18:06:00,62.2,61.0,29.53,WNW,292,0.0,0.0,96,0.00,,,1.08,WeatherCatV1.15B25,2013-06-28 22:06:00,
2013-06-28 18:11:00,62.2,61.0,29.53,WNW,292,0.0,0.0,96,0.00,,,1.08,WeatherCatV1.15B25,2013-06-28 22:11:00,
2013-06-28 18:16:00,62.2,61.0,29.53,WNW,292,0.0,0.0,96,0.00,,,1.08,WeatherCatV1.15B25,2013-06-28 22:16:00,
2013-06-28 18:21:00,62.2,61.0,29.53,WNW,292,0.0,0.0,96,0.00,,,1.08,WeatherCatV1.15B25,2013-06-28 22:21:00,
2013-06-28 18:26:00,62.2,61.0,29.53,WNW,293,0.0,0.0,96,0.00,,,1.08,WeatherCatV1.15B25,2013-06-28 22:26:00,
2013-06-28 18:31:00,62.1,60.9,29.52,WNW,292,0.0,0.0,96,0.00,,,1.08,WeatherCatV1.15B25,2013-06-28 22:31:00,
2013-06-28 18:36:00,62.1,60.9,29.53,WNW,293,0.0,0.0,96,0.00,,,1.08,WeatherCatV1.15B25,2013-06-28 22:36:00,
2013-06-28 18:41:00,62.0,60.8,29.53,WNW,293,0.0,0.0,96,0.00,,,1.08,WeatherCatV1.15B25,2013-06-28 22:41:00,
2013-06-28 18:46:00,62.0,60.8,29.53,WNW,293,0.0,0.0,96,0.00,,,1.08,WeatherCatV1.15B25,2013-06-28 22:46:00,
2013-06-28 18:51:00,61.9,60.7,29.53,WNW,293,0.0,0.0,96,0.00,,,1.08,WeatherCatV1.15B25,2013-06-28 22:51:00,
2013-06-28 18:56:00,61.9,60.7,29.53,WNW,293,0.0,0.0,96,0.00,,,1.08,WeatherCatV1.15B25,2013-06-28 22:56:00,
2013-06-28 19:01:00,61.9,60.7,29.53,WNW,291,0.0,0.0,96,0.00,,,1.08,WeatherCatV1.15B25,2013-06-28 23:01:00,
2013-06-28 19:06:00,61.8,60.6,29.53,WNW,291,0.0,0.0,96,0.00,,,1.08,WeatherCatV1.15B25,2013-06-28 23:06:00,
2013-06-28 19:11:00,61.8,60.6,29.53,WNW,291,0.0,0.0,96,0.00,,,1.08,WeatherCatV1.15B25,2013-06-28 23:11:00,
2013-06-28 19:16:00,61.9,60.7,29.53,WNW,291,0.0,0.0,96,0.00,,,1.08,WeatherCatV1.15B25,2013-06-28 23:16:00,
2013-06-28 19:21:00,61.9,60.7,29.53,WNW,291,0.0,0.0,96,0.00,,,1.08,WeatherCatV1.15B25,2013-06-28 23:21:00,
2013-06-28 19:26:00,61.9,60.7,29.54,WNW,291,0.0,0.0,96,0.00,,,1.08,WeatherCatV1.15B25,2013-06-28 23:26:00,
2013-06-28 19:31:00,61.8,60.6,29.54,WNW,292,0.0,0.0,96,0.00,,,1.08,WeatherCatV1.15B25,2013-06-28 23:31:00,
2013-06-28 19:36:00,61.7,60.5,29.54,WNW,292,0.0,0.0,96,0.00,,,1.08,WeatherCatV1.15B25,2013-06-28 23:36:00,
2013-06-28 19:41:00,61.6,60.4,29.54,WNW,292,0.0,0.0,96,0.00,,,1.08,WeatherCatV1.15B25,2013-06-28 23:41:00,
2013-06-28 19:46:00,61.6,60.4,29.54,WNW,292,0.0,0.0,96,0.00,,,1.08,WeatherCatV1.15B25,2013-06-28 23:46:00,
2013-06-28 19:51:00,61.5,60.3,29.53,WNW,292,0.0,0.0,96,0.00,,,1.08,WeatherCatV1.15B25,2013-06-28 23:51:00,
2013-06-28 19:56:00,61.5,60.3,29.53,WNW,290,0.0,0.0,96,0.00,,,1.08,WeatherCatV1.15B25,2013-06-28 23:56:00,
2013-06-28 20:01:00,61.5,60.3,29.54,WNW,290,0.0,0.0,96,0.00,,,1.08,WeatherCatV1.15B25,2013-06-29 00:01:00,
2013-06-28 20:06:00,61.4,60.2,29.54,WNW,290,0.0,0.0,96,0.00,,,1.08,WeatherCatV1.15B25,2013-06-29 00:06:00,
2013-06-28 20:11:00,61.4,60.2,29.54,WNW,290,0.0,0.0,96,0.00,,,1.08,WeatherCatV1.15B25,2013-06-29 00:11:00,
2013-06-28 20:16:00,61.4,60.2,29.55,WNW,290,0.0,0.0,96,0.00,,,1.08,WeatherCatV1.15B25,2013-06-29 00:16:00,
2013-06-28 20:21:00,61.4,60.2,29.55,WNW,290,0.0,0.0,96,0.00,,,1.08,WeatherCatV1.15B25,2013-06-29 00:21:00,
2013-06-28 20:26:00,61.4,60.5,29.55,WNW,290,0.0,0.0,97,0.00,,,1.09,WeatherCatV1.15B25,2013-06-29 00:26:00,
2013-06-28 20:31:00,61.3,60.4,29.55,WNW,290,0.0,0.0,97,0.11,,,1.10,WeatherCatV1.15B25,2013-06-29 00:31:00,
2013-06-28 20:36:00,61.3,60.4,29.55,WNW,290,0.0,0.0,97,0.07,,,1.10,WeatherCatV1.15B25,2013-06-29 00:36:00,
2013-06-28 20:41:00,61.3,60.4,29.55,WNW,290,0.0,0.0,97,0.07,,,1.11,WeatherCatV1.15B25,2013-06-29 00:41:00,
2013-06-28 20:46:00,61.3,60.4,29.54,WNW,290,0.0,0.0,97,0.10,,,1.12,WeatherCatV1.15B25,2013-06-29 00:46:00,
2013-06-28 20:51:00,61.2,60.3,29.55,WNW,290,0.0,0.0,97,0.40,,,1.15,WeatherCatV1.15B25,2013-06-29 00:51:00,
2013-06-28 20:56:00,61.2,60.3,29.55,WNW,290,0.0,0.0,97,0.13,,,1.17,WeatherCatV1.15B25,2013-06-29 00:56:00,
2013-06-28 21:01:00,61.1,59.9,29.54,WNW,290,0.0,0.0,96,0.11,,,1.17,WeatherCatV1.15B25,2013-06-29 01:01:00,
2013-06-28 21:06:00,61.2,60.0,29.55,WNW,290,0.0,0.0,96,0.11,,,1.18,WeatherCatV1.15B25,2013-06-29 01:06:00,
2013-06-28 21:11:00,61.1,59.9,29.55,WNW,290,0.0,0.0,96,0.06,,,1.18,WeatherCatV1.15B25,2013-06-29 01:11:00,
2013-06-28 21:16:00,61.1,59.9,29.55,WNW,290,0.0,0.0,96,0.04,,,1.18,WeatherCatV1.15B25,2013-06-29 01:16:00,
2013-06-28 21:21:00,61.1,60.2,29.55,WNW,290,0.0,0.0,97,0.00,,,1.18,WeatherCatV1.15B25,2013-06-29 01:21:00,
2013-06-28 21:26:00,61.1,60.2,29.53,WNW,290,0.0,0.0,97,0.00,,,1.18,WeatherCatV1.15B25,2013-06-29 01:26:00,
2013-06-28 21:31:00,61.1,60.2,29.53,WNW,290,0.0,0.0,97,0.00,,,1.18,WeatherCatV1.15B25,2013-06-29 01:31:00,
2013-06-28 21:36:00,61.1,60.2,29.54,WNW,290,0.0,0.0,97,0.00,,,1.18,WeatherCatV1.15B25,2013-06-29 01:36:00,
2013-06-28 21:41:00,61.1,60.2,29.55,WNW,290,0.0,0.0,97,0.00,,,1.19,WeatherCatV1.15B25,2013-06-29 01:41:00,
2013-06-28 21:46:00,61.1,60.2,29.56,WNW,290,0.0,0.0,97,0.00,,,1.19,WeatherCatV1.15B25,2013-06-29 01:46:00,
2013-06-28 21:51:00,61.1,60.2,29.55,WNW,290,0.0,0.0,97,0.00,,,1.19,WeatherCatV1.15B25,2013-06-29 01:51:00,
2013-06-28 21:56:00,61.1,60.2,29.56,WNW,290,0.0,0.0,97,0.00,,,1.19,WeatherCatV1.15B25,2013-06-29 01:56:00,
2013-06-28 22:01:00,61.1,60.2,29.56,WNW,290,0.0,0.0,97,0.00,,,1.19,WeatherCatV1.15B25,2013-06-29 02:01:00,
2013-06-28 22:06:00,61.1,60.2,29.56,WNW,290,0.0,0.0,97,0.00,,,1.19,WeatherCatV1.15B25,2013-06-29 02:06:00,
2013-06-28 22:11:00,61.1,60.2,29.55,WNW,290,0.0,0.0,97,0.00,,,1.19,WeatherCatV1.15B25,2013-06-29 02:11:00,
2013-06-28 22:16:00,61.1,60.2,29.54,WNW,290,0.0,0.0,97,0.00,,,1.19,WeatherCatV1.15B25,2013-06-29 02:16:00,
2013-06-28 22:21:00,61.1,60.2,29.55,WNW,290,0.0,0.0,97,0.00,,,1.19,WeatherCatV1.15B25,2013-06-29 02:21:00,
2013-06-28 22:26:00,61.1,60.2,29.56,WNW,290,0.0,0.0,97,0.00,,,1.19,WeatherCatV1.15B25,2013-06-29 02:26:00,
2013-06-28 22:31:00,61.1,60.2,29.55,WNW,290,0.0,0.0,97,0.00,,,1.19,WeatherCatV1.15B25,2013-06-29 02:31:00,
2013-06-28 22:36:00,61.1,60.2,29.55,WNW,290,0.0,0.0,97,0.00,,,1.19,WeatherCatV1.15B25,2013-06-29 02:36:00,
2013-06-28 22:41:00,61.1,60.2,29.55,WNW,290,0.0,0.0,97,0.00,,,1.19,WeatherCatV1.15B25,2013-06-29 02:41:00,
2013-06-28 22:46:00,61.1,60.2,29.55,WNW,290,0.0,0.0,97,0.00,,,1.19,WeatherCatV1.15B25,2013-06-29 02:46:00,
2013-06-28 22:51:00,61.1,60.2,29.55,WNW,290,0.0,0.0,97,0.00,,,1.19,WeatherCatV1.15B25,2013-06-29 02:51:00,
2013-06-28 22:56:00,61.1,60.2,29.55,WNW,290,0.0,0.0,97,0.00,,,1.19,WeatherCatV1.15B25,2013-06-29 02:56:00,
2013-06-28 23:01:00,61.0,60.1,29.55,WNW,290,0.0,0.0,97,0.00,,,1.19,WeatherCatV1.15B25,2013-06-29 03:01:00,
2013-06-28 23:06:00,61.0,60.1,29.54,WNW,290,0.0,0.0,97,0.00,,,1.19,WeatherCatV1.15B25,2013-06-29 03:06:00,
2013-06-28 23:11:00,61.0,60.1,29.54,WNW,290,0.0,0.0,97,0.00,,,1.19,WeatherCatV1.15B25,2013-06-29 03:11:00,
2013-06-28 23:16:00,61.0,60.1,29.54,WNW,290,0.0,0.0,97,0.00,,,1.19,WeatherCatV1.15B25,2013-06-29 03:16:00,
2013-06-28 23:21:00,61.0,60.1,29.55,WNW,290,0.0,0.0,97,0.00,,,1.19,WeatherCatV1.15B25,2013-06-29 03:21:00,
2013-06-28 23:26:00,61.0,60.1,29.54,WNW,290,0.0,0.0,97,0.00,,,1.19,WeatherCatV1.15B25,2013-06-29 03:26:00,
2013-06-28 23:31:00,61.1,60.2,29.54,WNW,290,0.0,0.0,97,0.00,,,1.19,WeatherCatV1.15B25,2013-06-29 03:31:00,
2013-06-28 23:36:00,61.0,60.1,29.55,WNW,290,0.0,0.0,97,0.00,,,1.19,WeatherCatV1.15B25,2013-06-29 03:36:00,
2013-06-28 23:42:00,61.0,60.1,29.55,WNW,290,0.0,0.0,97,0.00,,,1.19,WeatherCatV1.15B25,2013-06-29 03:42:00,
2013-06-28 23:47:00,61.0,60.1,29.55,WNW,290,0.0,0.0,97,0.00,,,1.19,WeatherCatV1.15B25,2013-06-29 03:47:00,
2013-06-28 23:52:00,61.0,60.1,29.55,WNW,290,0.0,0.0,97,0.00,,,1.19,WeatherCatV1.15B25,2013-06-29 03:52:00,
2013-06-28 23:57:00,61.0,60.1,29.55,WNW,290,0.0,0.0,97,0.00,,,1.19,WeatherCatV1.15B25,2013-06-29 03:57:00,